sensor_id;sensor_type;location;lat;lon;timestamp;pressure;altitude;pressure_sealevel;temperature;humidity
50282;BME280;36176;51.506;10.272;2022-11-15T00:01:17;99143.91;;;10.20;82.17
50282;BME280;36176;51.506;10.272;2022-11-15T00:04:37;99154.06;;;10.30;82.36
50282;BME280;36176;51.506;10.272;2022-11-15T00:07:17;99150.00;;;10.40;82.06
50282;BME280;36176;51.506;10.272;2022-11-15T00:10:17;99150.59;;;10.45;81.83
50282;BME280;36176;51.506;10.272;2022-11-15T00:12:44;99142.72;;;10.43;81.23
50282;BME280;36176;51.506;10.272;2022-11-15T00:15:13;99142.91;;;10.40;81.66
50282;BME280;36176;51.506;10.272;2022-11-15T00:17:40;99138.44;;;10.41;81.76
50282;BME280;36176;51.506;10.272;2022-11-15T00:20:16;99143.59;;;10.44;81.46
50282;BME280;36176;51.506;10.272;2022-11-15T00:22:43;99141.03;;;10.42;81.59
50282;BME280;36176;51.506;10.272;2022-11-15T00:25:17;99144.84;;;10.37;81.65
50282;BME280;36176;51.506;10.272;2022-11-15T00:27:50;99141.00;;;10.25;81.87
50282;BME280;36176;51.506;10.272;2022-11-15T00:30:18;99135.34;;;10.15;82.22
50282;BME280;36176;51.506;10.272;2022-11-15T00:32:51;99129.50;;;10.09;82.51
50282;BME280;36176;51.506;10.272;2022-11-15T00:35:38;99139.69;;;9.99;82.61
50282;BME280;36176;51.506;10.272;2022-11-15T00:38:17;99143.88;;;10.03;83.33
50282;BME280;36176;51.506;10.272;2022-11-15T00:40:45;99145.75;;;10.01;82.84
50282;BME280;36176;51.506;10.272;2022-11-15T00:43:12;99145.53;;;10.06;83.30
50282;BME280;36176;51.506;10.272;2022-11-15T00:45:39;99143.34;;;10.14;83.97
50282;BME280;36176;51.506;10.272;2022-11-15T00:48:13;99146.53;;;10.20;83.56
50282;BME280;36176;51.506;10.272;2022-11-15T00:50:53;99141.50;;;10.33;83.14
50282;BME280;36176;51.506;10.272;2022-11-15T00:53:23;99139.06;;;10.46;83.06
50282;BME280;36176;51.506;10.272;2022-11-15T00:55:50;99138.59;;;10.55;82.19
50282;BME280;36176;51.506;10.272;2022-11-15T00:58:23;99136.41;;;10.63;82.40
50282;BME280;36176;51.506;10.272;2022-11-15T01:00:52;99133.28;;;10.73;82.04
50282;BME280;36176;51.506;10.272;2022-11-15T01:03:36;99130.28;;;10.79;81.35
50282;BME280;36176;51.506;10.272;2022-11-15T01:06:25;99141.59;;;10.82;80.90
50282;BME280;36176;51.506;10.272;2022-11-15T01:08:51;99140.41;;;10.88;80.90
50282;BME280;36176;51.506;10.272;2022-11-15T01:11:27;99145.75;;;10.86;80.39
50282;BME280;36176;51.506;10.272;2022-11-15T01:14:00;99147.91;;;10.80;80.51
50282;BME280;36176;51.506;10.272;2022-11-15T01:19:20;99152.25;;;10.81;80.93
50282;BME280;36176;51.506;10.272;2022-11-15T01:21:59;99150.22;;;10.86;81.11
50282;BME280;36176;51.506;10.272;2022-11-15T01:24:27;99147.50;;;10.88;80.73
50282;BME280;36176;51.506;10.272;2022-11-15T01:27:05;99146.31;;;10.93;80.83
50282;BME280;36176;51.506;10.272;2022-11-15T01:30:21;99141.28;;;11.04;80.09
50282;BME280;36176;51.506;10.272;2022-11-15T01:33:08;99141.88;;;11.10;79.52
50282;BME280;36176;51.506;10.272;2022-11-15T01:35:38;99132.91;;;11.12;79.85
50282;BME280;36176;51.506;10.272;2022-11-15T01:38:20;99139.91;;;11.13;79.84
50282;BME280;36176;51.506;10.272;2022-11-15T01:40:48;99135.13;;;11.04;79.87
50282;BME280;36176;51.506;10.272;2022-11-15T01:43:46;99139.19;;;10.94;80.35
50282;BME280;36176;51.506;10.272;2022-11-15T01:48:53;99133.88;;;10.78;81.23
50282;BME280;36176;51.506;10.272;2022-11-15T01:51:25;99134.03;;;10.75;81.65
50282;BME280;36176;51.506;10.272;2022-11-15T01:54:17;99128.13;;;10.70;81.27
50282;BME280;36176;51.506;10.272;2022-11-15T01:56:59;99124.09;;;10.62;81.12
50282;BME280;36176;51.506;10.272;2022-11-15T02:00:07;99123.09;;;10.48;81.86
50282;BME280;36176;51.506;10.272;2022-11-15T02:02:41;99121.25;;;10.32;82.24
50282;BME280;36176;51.506;10.272;2022-11-15T02:05:26;99105.34;;;10.15;82.89
50282;BME280;36176;51.506;10.272;2022-11-15T02:08:20;99110.69;;;9.96;83.27
50282;BME280;36176;51.506;10.272;2022-11-15T02:11:09;99105.56;;;9.75;83.36
50282;BME280;36176;51.506;10.272;2022-11-15T02:14:03;99096.19;;;9.51;83.38
50282;BME280;36176;51.506;10.272;2022-11-15T02:16:36;99099.66;;;9.34;84.07
50282;BME280;36176;51.506;10.272;2022-11-15T02:20:26;99089.09;;;9.15;84.23
50282;BME280;36176;51.506;10.272;2022-11-15T02:32:05;99097.03;;;8.77;85.14
50282;BME280;36176;51.506;10.272;2022-11-15T02:43:00;99079.56;;;8.54;85.97
50282;BME280;36176;51.506;10.272;2022-11-15T02:49:53;99060.38;;;8.30;87.63
50282;BME280;36176;51.506;10.272;2022-11-15T02:52:39;99062.31;;;8.26;87.94
50282;BME280;36176;51.506;10.272;2022-11-15T02:55:33;99055.50;;;8.21;87.56
50282;BME280;36176;51.506;10.272;2022-11-15T02:58:23;99068.97;;;8.15;87.76
50282;BME280;36176;51.506;10.272;2022-11-15T03:01:04;99066.75;;;8.05;87.59
50282;BME280;36176;51.506;10.272;2022-11-15T03:03:48;99067.97;;;7.97;88.55
50282;BME280;36176;51.506;10.272;2022-11-15T03:06:27;99065.97;;;7.83;88.81
50282;BME280;36176;51.506;10.272;2022-11-15T03:09:04;99060.50;;;7.65;89.78
50282;BME280;36176;51.506;10.272;2022-11-15T03:11:58;99059.19;;;7.55;90.59
50282;BME280;36176;51.506;10.272;2022-11-15T03:14:58;99068.41;;;7.45;90.92
50282;BME280;36176;51.506;10.272;2022-11-15T03:17:47;99063.38;;;7.39;91.37
50282;BME280;36176;51.506;10.272;2022-11-15T03:20:25;99059.94;;;7.37;91.40
50282;BME280;36176;51.506;10.272;2022-11-15T03:22:56;99062.75;;;7.32;91.10
50282;BME280;36176;51.506;10.272;2022-11-15T03:25:26;99058.59;;;7.27;91.05
50282;BME280;36176;51.506;10.272;2022-11-15T03:27:57;99057.06;;;7.21;90.95
50282;BME280;36176;51.506;10.272;2022-11-15T03:30:26;99066.00;;;7.17;90.94
50282;BME280;36176;51.506;10.272;2022-11-15T03:33:14;99061.06;;;7.09;90.77
50282;BME280;36176;51.506;10.272;2022-11-15T03:35:45;99055.13;;;7.04;90.56
50282;BME280;36176;51.506;10.272;2022-11-15T03:38:26;99058.59;;;7.05;91.08
50282;BME280;36176;51.506;10.272;2022-11-15T03:41:28;99059.31;;;7.08;91.93
50282;BME280;36176;51.506;10.272;2022-11-15T03:44:45;99045.97;;;7.13;91.63
50282;BME280;36176;51.506;10.272;2022-11-15T03:47:22;99053.81;;;7.14;91.92
50282;BME280;36176;51.506;10.272;2022-11-15T03:50:00;99056.19;;;7.20;91.72
50282;BME280;36176;51.506;10.272;2022-11-15T03:52:44;99057.75;;;7.26;91.43
50282;BME280;36176;51.506;10.272;2022-11-15T03:55:16;99057.56;;;7.31;92.12
50282;BME280;36176;51.506;10.272;2022-11-15T03:57:44;99058.94;;;7.39;92.27
50282;BME280;36176;51.506;10.272;2022-11-15T04:00:16;99042.53;;;7.55;93.35
50282;BME280;36176;51.506;10.272;2022-11-15T04:02:43;99038.91;;;7.78;93.39
50282;BME280;36176;51.506;10.272;2022-11-15T04:05:11;99043.59;;;8.12;94.39
50282;BME280;36176;51.506;10.272;2022-11-15T04:10:21;99038.19;;;8.55;91.80
50282;BME280;36176;51.506;10.272;2022-11-15T04:12:55;99037.41;;;8.52;90.82
50282;BME280;36176;51.506;10.272;2022-11-15T04:15:23;99036.03;;;8.44;90.25
50282;BME280;36176;51.506;10.272;2022-11-15T04:18:24;99024.41;;;8.27;89.70
50282;BME280;36176;51.506;10.272;2022-11-15T04:21:30;99021.88;;;8.05;89.07
50282;BME280;36176;51.506;10.272;2022-11-15T04:24:41;99024.53;;;7.85;89.82
50282;BME280;36176;51.506;10.272;2022-11-15T04:27:15;99025.06;;;7.73;89.90
50282;BME280;36176;51.506;10.272;2022-11-15T04:29:42;99022.88;;;7.62;89.53
50282;BME280;36176;51.506;10.272;2022-11-15T04:32:16;99026.94;;;7.49;90.24
50282;BME280;36176;51.506;10.272;2022-11-15T04:34:53;99022.31;;;7.33;90.57
50282;BME280;36176;51.506;10.272;2022-11-15T04:37:20;99022.63;;;7.26;91.74
50282;BME280;36176;51.506;10.272;2022-11-15T04:40:04;99021.66;;;7.28;93.00
50282;BME280;36176;51.506;10.272;2022-11-15T04:42:31;99018.28;;;7.24;92.56
50282;BME280;36176;51.506;10.272;2022-11-15T04:45:01;99028.19;;;7.18;92.15
50282;BME280;36176;51.506;10.272;2022-11-15T04:47:47;99019.00;;;7.06;92.36
50282;BME280;36176;51.506;10.272;2022-11-15T04:50:14;99014.81;;;7.02;93.57
50282;BME280;36176;51.506;10.272;2022-11-15T04:52:44;99016.75;;;6.97;93.36
50282;BME280;36176;51.506;10.272;2022-11-15T04:55:21;99015.22;;;6.91;93.45
50282;BME280;36176;51.506;10.272;2022-11-15T04:57:57;99016.06;;;6.92;93.98
50282;BME280;36176;51.506;10.272;2022-11-15T05:00:26;99020.56;;;6.90;93.73
50282;BME280;36176;51.506;10.272;2022-11-15T05:02:53;99019.84;;;6.85;93.39
50282;BME280;36176;51.506;10.272;2022-11-15T05:05:38;99014.09;;;6.75;93.33
50282;BME280;36176;51.506;10.272;2022-11-15T05:08:06;99016.13;;;6.68;93.97
50282;BME280;36176;51.506;10.272;2022-11-15T05:10:33;99023.53;;;6.58;94.30
50282;BME280;36176;51.506;10.272;2022-11-15T05:13:00;99022.75;;;6.55;94.31
50282;BME280;36176;51.506;10.272;2022-11-15T05:15:35;99017.63;;;6.52;95.00
50282;BME280;36176;51.506;10.272;2022-11-15T05:18:03;99016.56;;;6.56;95.38
50282;BME280;36176;51.506;10.272;2022-11-15T05:20:30;99007.66;;;6.60;95.51
50282;BME280;36176;51.506;10.272;2022-11-15T05:22:57;99012.78;;;6.63;95.73
50282;BME280;36176;51.506;10.272;2022-11-15T05:25:24;99023.41;;;6.62;95.88
50282;BME280;36176;51.506;10.272;2022-11-15T05:27:51;99025.34;;;6.56;95.92
50282;BME280;36176;51.506;10.272;2022-11-15T05:30:19;99016.66;;;6.54;95.79
50282;BME280;36176;51.506;10.272;2022-11-15T05:32:47;99023.75;;;6.52;96.13
50282;BME280;36176;51.506;10.272;2022-11-15T05:35:24;99017.44;;;6.56;96.99
50282;BME280;36176;51.506;10.272;2022-11-15T05:37:53;99022.59;;;6.59;96.27
50282;BME280;36176;51.506;10.272;2022-11-15T05:40:21;99013.84;;;6.59;95.93
50282;BME280;36176;51.506;10.272;2022-11-15T05:42:48;99018.19;;;6.60;95.85
50282;BME280;36176;51.506;10.272;2022-11-15T05:45:15;99013.88;;;6.57;95.78
50282;BME280;36176;51.506;10.272;2022-11-15T05:47:47;99005.00;;;6.60;96.33
50282;BME280;36176;51.506;10.272;2022-11-15T05:50:16;99010.28;;;6.60;95.97
50282;BME280;36176;51.506;10.272;2022-11-15T05:52:45;99010.44;;;6.55;95.81
50282;BME280;36176;51.506;10.272;2022-11-15T05:55:13;99016.94;;;6.47;95.09
50282;BME280;36176;51.506;10.272;2022-11-15T05:57:41;99022.47;;;6.39;95.29
50282;BME280;36176;51.506;10.272;2022-11-15T06:00:08;99028.88;;;6.32;95.22
50282;BME280;36176;51.506;10.272;2022-11-15T06:02:36;99021.34;;;6.23;95.26
50282;BME280;36176;51.506;10.272;2022-11-15T06:05:03;99028.63;;;6.14;95.38
50282;BME280;36176;51.506;10.272;2022-11-15T06:07:31;99031.44;;;6.10;95.40
50282;BME280;36176;51.506;10.272;2022-11-15T06:09:58;99036.69;;;6.10;95.91
50282;BME280;36176;51.506;10.272;2022-11-15T06:12:46;99048.19;;;6.07;95.72
50282;BME280;36176;51.506;10.272;2022-11-15T06:15:13;99045.72;;;6.03;96.07
50282;BME280;36176;51.506;10.272;2022-11-15T06:17:41;99047.53;;;6.01;96.31
50282;BME280;36176;51.506;10.272;2022-11-15T06:20:08;99050.13;;;6.02;97.26
50282;BME280;36176;51.506;10.272;2022-11-15T06:23:04;99059.56;;;6.08;96.81
50282;BME280;36176;51.506;10.272;2022-11-15T06:25:31;99061.19;;;6.12;97.37
50282;BME280;36176;51.506;10.272;2022-11-15T06:27:58;99057.69;;;6.11;96.89
50282;BME280;36176;51.506;10.272;2022-11-15T06:30:26;99064.78;;;6.09;96.66
50282;BME280;36176;51.506;10.272;2022-11-15T06:33:04;99057.97;;;6.04;96.86
50282;BME280;36176;51.506;10.272;2022-11-15T06:35:33;99055.44;;;6.01;96.69
50282;BME280;36176;51.506;10.272;2022-11-15T06:38:07;99058.13;;;5.99;96.68
50282;BME280;36176;51.506;10.272;2022-11-15T06:40:35;99060.91;;;5.94;96.48
50282;BME280;36176;51.506;10.272;2022-11-15T06:43:04;99067.16;;;5.90;96.26
50282;BME280;36176;51.506;10.272;2022-11-15T06:45:33;99063.03;;;5.83;96.54
50282;BME280;36176;51.506;10.272;2022-11-15T06:48:18;99069.28;;;5.79;96.81
50282;BME280;36176;51.506;10.272;2022-11-15T06:50:53;99076.44;;;5.75;96.14
50282;BME280;36176;51.506;10.272;2022-11-15T06:53:39;99078.22;;;5.75;96.02
50282;BME280;36176;51.506;10.272;2022-11-15T06:56:07;99076.22;;;5.82;97.63
50282;BME280;36176;51.506;10.272;2022-11-15T06:58:34;99082.88;;;5.92;97.28
50282;BME280;36176;51.506;10.272;2022-11-15T07:01:07;99078.47;;;5.94;96.77
50282;BME280;36176;51.506;10.272;2022-11-15T07:03:39;99074.06;;;5.93;96.97
50282;BME280;36176;51.506;10.272;2022-11-15T07:06:07;99083.75;;;5.92;96.10
50282;BME280;36176;51.506;10.272;2022-11-15T07:08:35;99081.13;;;5.92;96.07
50282;BME280;36176;51.506;10.272;2022-11-15T07:11:21;99075.84;;;5.92;96.34
50282;BME280;36176;51.506;10.272;2022-11-15T07:14:07;99077.56;;;5.93;96.55
50282;BME280;36176;51.506;10.272;2022-11-15T07:16:37;99069.53;;;5.98;96.91
50282;BME280;36176;51.506;10.272;2022-11-15T07:19:04;99068.88;;;6.18;97.68
50282;BME280;36176;51.506;10.272;2022-11-15T07:21:32;99066.81;;;6.50;98.83
50282;BME280;36176;51.506;10.272;2022-11-15T07:23:59;99074.00;;;6.92;98.96
50282;BME280;36176;51.506;10.272;2022-11-15T07:26:26;99073.88;;;7.18;97.80
50282;BME280;36176;51.506;10.272;2022-11-15T07:28:55;99078.38;;;7.37;97.37
50282;BME280;36176;51.506;10.272;2022-11-15T07:31:22;99079.06;;;7.64;96.67
50282;BME280;36176;51.506;10.272;2022-11-15T07:34:15;99071.59;;;7.94;96.36
50282;BME280;36176;51.506;10.272;2022-11-15T07:36:42;99069.50;;;8.23;95.69
50282;BME280;36176;51.506;10.272;2022-11-15T07:39:09;99074.44;;;8.51;94.25
50282;BME280;36176;51.506;10.272;2022-11-15T07:41:39;99071.25;;;8.82;93.24
50282;BME280;36176;51.506;10.272;2022-11-15T07:44:06;99073.09;;;9.18;91.04
50282;BME280;36176;51.506;10.272;2022-11-15T07:46:33;99076.81;;;9.50;90.37
50282;BME280;36176;51.506;10.272;2022-11-15T07:49:00;99074.44;;;9.80;89.18
50282;BME280;36176;51.506;10.272;2022-11-15T07:51:27;99076.84;;;10.02;89.23
50282;BME280;36176;51.506;10.272;2022-11-15T07:53:54;99072.41;;;10.20;87.67
50282;BME280;36176;51.506;10.272;2022-11-15T07:56:21;99070.53;;;10.40;84.94
50282;BME280;36176;51.506;10.272;2022-11-15T07:58:49;99065.66;;;10.66;84.94
50282;BME280;36176;51.506;10.272;2022-11-15T08:01:17;99053.59;;;10.92;83.98
50282;BME280;36176;51.506;10.272;2022-11-15T08:03:47;99056.41;;;11.20;81.50
50282;BME280;36176;51.506;10.272;2022-11-15T08:06:21;99059.13;;;11.50;81.98
50282;BME280;36176;51.506;10.272;2022-11-15T08:09:01;99056.88;;;11.59;78.57
50282;BME280;36176;51.506;10.272;2022-11-15T08:11:28;99052.94;;;11.66;78.95
50282;BME280;36176;51.506;10.272;2022-11-15T08:13:56;99050.13;;;11.69;78.75
50282;BME280;36176;51.506;10.272;2022-11-15T08:16:23;99045.94;;;11.65;78.37
50282;BME280;36176;51.506;10.272;2022-11-15T08:18:50;99055.78;;;11.63;78.24
50282;BME280;36176;51.506;10.272;2022-11-15T08:21:31;99046.38;;;11.57;77.18
50282;BME280;36176;51.506;10.272;2022-11-15T08:24:07;99054.53;;;11.54;76.62
50282;BME280;36176;51.506;10.272;2022-11-15T08:27:00;99040.66;;;11.49;76.97
50282;BME280;36176;51.506;10.272;2022-11-15T08:29:47;99041.53;;;11.49;77.18
50282;BME280;36176;51.506;10.272;2022-11-15T08:33:10;99038.75;;;11.51;77.14
50282;BME280;36176;51.506;10.272;2022-11-15T08:35:38;99033.47;;;11.51;76.91
50282;BME280;36176;51.506;10.272;2022-11-15T08:38:11;99033.56;;;11.49;76.08
50282;BME280;36176;51.506;10.272;2022-11-15T08:41:31;99030.53;;;11.56;76.19
50282;BME280;36176;51.506;10.272;2022-11-15T08:44:06;99025.22;;;11.56;75.54
50282;BME280;36176;51.506;10.272;2022-11-15T08:46:33;99025.81;;;11.61;75.56
50282;BME280;36176;51.506;10.272;2022-11-15T08:49:19;99027.16;;;11.68;74.51
50282;BME280;36176;51.506;10.272;2022-11-15T08:52:09;99018.31;;;11.83;74.92
50282;BME280;36176;51.506;10.272;2022-11-15T08:55:03;99025.56;;;11.96;72.87
50282;BME280;36176;51.506;10.272;2022-11-15T08:58:03;99023.84;;;11.95;73.17
50282;BME280;36176;51.506;10.272;2022-11-15T09:00:54;99025.38;;;11.99;73.32
50282;BME280;36176;51.506;10.272;2022-11-15T09:03:22;99018.41;;;12.12;73.68
50282;BME280;36176;51.506;10.272;2022-11-15T09:05:59;99021.84;;;12.28;71.59
50282;BME280;36176;51.506;10.272;2022-11-15T09:09:00;99016.50;;;12.71;71.80
50282;BME280;36176;51.506;10.272;2022-11-15T09:11:27;99017.03;;;13.32;71.16
50282;BME280;36176;51.506;10.272;2022-11-15T09:14:27;99010.72;;;14.13;67.50
50282;BME280;36176;51.506;10.272;2022-11-15T09:16:55;99017.44;;;14.70;66.16
50282;BME280;36176;51.506;10.272;2022-11-15T09:19:22;99011.28;;;15.42;65.60
50282;BME280;36176;51.506;10.272;2022-11-15T09:21:57;98998.97;;;15.76;61.38
50282;BME280;36176;51.506;10.272;2022-11-15T09:24:54;98995.19;;;16.14;58.48
50282;BME280;36176;51.506;10.272;2022-11-15T09:27:43;98999.94;;;16.55;56.35
50282;BME280;36176;51.506;10.272;2022-11-15T09:30:40;99001.38;;;17.05;58.87
50282;BME280;36176;51.506;10.272;2022-11-15T09:33:26;98996.16;;;17.47;55.12
50282;BME280;36176;51.506;10.272;2022-11-15T09:36:12;98988.78;;;17.60;55.29
50282;BME280;36176;51.506;10.272;2022-11-15T09:38:40;98991.13;;;17.85;54.55
50282;BME280;36176;51.506;10.272;2022-11-15T09:48:58;98972.03;;;18.00;50.30
50282;BME280;36176;51.506;10.272;2022-11-15T09:55:29;98973.56;;;18.23;49.60
50282;BME280;36176;51.506;10.272;2022-11-15T09:58:07;98965.25;;;17.96;50.03
50282;BME280;36176;51.506;10.272;2022-11-15T10:00:41;98975.63;;;18.10;51.14
50282;BME280;36176;51.506;10.272;2022-11-15T10:03:16;98972.75;;;18.02;50.61
50282;BME280;36176;51.506;10.272;2022-11-15T10:05:57;98969.91;;;17.94;50.92
50282;BME280;36176;51.506;10.272;2022-11-15T10:11:42;98967.50;;;18.00;49.22
50282;BME280;36176;51.506;10.272;2022-11-15T10:18:18;98963.25;;;18.49;48.63
50282;BME280;36176;51.506;10.272;2022-11-15T10:20:59;98956.78;;;18.52;49.18
50282;BME280;36176;51.506;10.272;2022-11-15T10:23:45;98950.09;;;18.37;49.80
50282;BME280;36176;51.506;10.272;2022-11-15T10:26:27;98943.81;;;18.26;50.50
50282;BME280;36176;51.506;10.272;2022-11-15T10:29:03;98954.94;;;18.22;51.66
50282;BME280;36176;51.506;10.272;2022-11-15T10:31:30;98950.34;;;18.34;49.43
50282;BME280;36176;51.506;10.272;2022-11-15T10:34:18;98943.28;;;18.33;51.41
50282;BME280;36176;51.506;10.272;2022-11-15T10:36:57;98943.25;;;18.02;50.18
50282;BME280;36176;51.506;10.272;2022-11-15T10:39:25;98940.09;;;17.87;51.85
50282;BME280;36176;51.506;10.272;2022-11-15T10:41:53;98934.69;;;17.66;50.83
50282;BME280;36176;51.506;10.272;2022-11-15T10:44:31;98935.13;;;17.50;52.16
50282;BME280;36176;51.506;10.272;2022-11-15T10:47:04;98929.91;;;17.49;52.61
50282;BME280;36176;51.506;10.272;2022-11-15T10:49:33;98930.50;;;17.52;52.34
50282;BME280;36176;51.506;10.272;2022-11-15T10:52:16;98926.00;;;17.20;52.78
50282;BME280;36176;51.506;10.272;2022-11-15T10:54:57;98917.78;;;17.12;55.05
50282;BME280;36176;51.506;10.272;2022-11-15T10:57:33;98915.63;;;16.95;54.35
50282;BME280;36176;51.506;10.272;2022-11-15T11:00:40;98918.47;;;16.93;54.74
50282;BME280;36176;51.506;10.272;2022-11-15T11:37:24;98893.63;;;15.56;59.09
50282;BME280;36176;51.506;10.272;2022-11-15T11:44:24;98884.97;;;15.41;58.64
50282;BME280;36176;51.506;10.272;2022-11-15T11:50:00;98879.88;;;15.38;58.90
50282;BME280;36176;51.506;10.272;2022-11-15T12:04:34;98875.03;;;15.90;58.18
50282;BME280;36176;51.506;10.272;2022-11-15T12:07:15;98873.31;;;15.78;59.32
50282;BME280;36176;51.506;10.272;2022-11-15T12:33:42;98842.69;;;15.59;59.27
50282;BME280;36176;51.506;10.272;2022-11-15T12:37:11;98840.47;;;15.53;58.72
50282;BME280;36176;51.506;10.272;2022-11-15T12:47:33;98825.06;;;15.45;58.92
50282;BME280;36176;51.506;10.272;2022-11-15T12:53:52;98826.25;;;15.41;59.88
50282;BME280;36176;51.506;10.272;2022-11-15T12:56:29;98830.50;;;15.32;59.73
50282;BME280;36176;51.506;10.272;2022-11-15T13:24:30;98796.06;;;13.85;68.54
50282;BME280;36176;51.506;10.272;2022-11-15T13:30:05;98791.50;;;13.61;69.58
50282;BME280;36176;51.506;10.272;2022-11-15T13:32:52;98784.59;;;13.46;70.09
50282;BME280;36176;51.506;10.272;2022-11-15T13:39:32;98789.47;;;13.27;70.49
50282;BME280;36176;51.506;10.272;2022-11-15T13:42:21;98786.59;;;13.17;70.79
50282;BME280;36176;51.506;10.272;2022-11-15T13:45:29;98779.56;;;13.03;71.38
50282;BME280;36176;51.506;10.272;2022-11-15T13:48:07;98775.09;;;13.04;71.61
50282;BME280;36176;51.506;10.272;2022-11-15T13:50:36;98767.19;;;13.02;71.45
50282;BME280;36176;51.506;10.272;2022-11-15T13:53:11;98766.59;;;12.98;72.08
50282;BME280;36176;51.506;10.272;2022-11-15T13:55:38;98761.34;;;12.97;71.83
50282;BME280;36176;51.506;10.272;2022-11-15T13:58:09;98758.16;;;12.92;71.96
50282;BME280;36176;51.506;10.272;2022-11-15T14:00:42;98750.81;;;12.83;72.53
50282;BME280;36176;51.506;10.272;2022-11-15T14:03:40;98743.66;;;12.70;73.45
50282;BME280;36176;51.506;10.272;2022-11-15T14:06:18;98744.09;;;12.64;73.08
50282;BME280;36176;51.506;10.272;2022-11-15T14:11:56;98735.97;;;12.53;73.50
50282;BME280;36176;51.506;10.272;2022-11-15T14:14:25;98733.41;;;12.51;73.70
50282;BME280;36176;51.506;10.272;2022-11-15T14:17:03;98732.78;;;12.48;74.11
50282;BME280;36176;51.506;10.272;2022-11-15T14:19:49;98732.88;;;12.46;74.33
50282;BME280;36176;51.506;10.272;2022-11-15T14:22:25;98731.06;;;12.47;74.02
50282;BME280;36176;51.506;10.272;2022-11-15T14:25:19;98735.75;;;12.43;74.87
50282;BME280;36176;51.506;10.272;2022-11-15T14:31:06;98727.97;;;12.40;75.00
50282;BME280;36176;51.506;10.272;2022-11-15T14:34:16;98725.44;;;12.39;74.91
50282;BME280;36176;51.506;10.272;2022-11-15T14:37:22;98728.16;;;12.37;74.56
50282;BME280;36176;51.506;10.272;2022-11-15T14:39:53;98723.06;;;12.34;74.06
50282;BME280;36176;51.506;10.272;2022-11-15T14:42:29;98726.13;;;12.28;74.73
50282;BME280;36176;51.506;10.272;2022-11-15T14:45:37;98724.34;;;12.28;74.92
50282;BME280;36176;51.506;10.272;2022-11-15T14:51:39;98712.41;;;12.21;74.74
50282;BME280;36176;51.506;10.272;2022-11-15T14:54:24;98715.06;;;12.21;75.17
50282;BME280;36176;51.506;10.272;2022-11-15T14:56:53;98714.41;;;12.18;75.16
50282;BME280;36176;51.506;10.272;2022-11-15T14:59:30;98705.69;;;12.16;75.30
50282;BME280;36176;51.506;10.272;2022-11-15T15:01:57;98713.78;;;12.14;75.45
50282;BME280;36176;51.506;10.272;2022-11-15T15:08:04;98710.75;;;12.06;75.14
50282;BME280;36176;51.506;10.272;2022-11-15T15:10:43;98714.47;;;12.03;75.63
50282;BME280;36176;51.506;10.272;2022-11-15T15:13:23;98706.50;;;12.03;75.68
50282;BME280;36176;51.506;10.272;2022-11-15T15:15:51;98703.94;;;12.02;75.38
50282;BME280;36176;51.506;10.272;2022-11-15T15:18:46;98696.94;;;12.01;75.74
50282;BME280;36176;51.506;10.272;2022-11-15T15:21:26;98692.75;;;11.97;75.60
50282;BME280;36176;51.506;10.272;2022-11-15T15:24:03;98682.34;;;11.94;75.83
50282;BME280;36176;51.506;10.272;2022-11-15T15:26:49;98678.09;;;11.91;76.59
50282;BME280;36176;51.506;10.272;2022-11-15T15:29:31;98680.16;;;11.86;75.60
50282;BME280;36176;51.506;10.272;2022-11-15T15:31:58;98675.72;;;11.86;75.92
50282;BME280;36176;51.506;10.272;2022-11-15T15:34:25;98674.94;;;11.84;75.90
50282;BME280;36176;51.506;10.272;2022-11-15T15:37:21;98675.91;;;11.83;76.16
50282;BME280;36176;51.506;10.272;2022-11-15T15:40:49;98673.44;;;11.80;75.36
50282;BME280;36176;51.506;10.272;2022-11-15T15:43:18;98679.50;;;11.82;75.55
50282;BME280;36176;51.506;10.272;2022-11-15T15:49:27;98674.22;;;11.68;75.97
50282;BME280;36176;51.506;10.272;2022-11-15T15:52:03;98671.88;;;11.63;75.83
50282;BME280;36176;51.506;10.272;2022-11-15T15:54:46;98670.94;;;11.64;75.81
50282;BME280;36176;51.506;10.272;2022-11-15T15:57:42;98659.28;;;11.67;75.43
50282;BME280;36176;51.506;10.272;2022-11-15T16:00:47;98658.44;;;11.66;75.58
50282;BME280;36176;51.506;10.272;2022-11-15T16:03:59;98659.19;;;11.68;75.12
50282;BME280;36176;51.506;10.272;2022-11-15T16:06:40;98654.91;;;11.66;75.46
50282;BME280;36176;51.506;10.272;2022-11-15T16:12:57;98654.81;;;11.67;75.23
50282;BME280;36176;51.506;10.272;2022-11-15T16:16:12;98641.75;;;11.64;75.68
50282;BME280;36176;51.506;10.272;2022-11-15T16:19:38;98646.22;;;11.64;75.05
50282;BME280;36176;51.506;10.272;2022-11-15T16:22:05;98651.69;;;11.61;75.98
50282;BME280;36176;51.506;10.272;2022-11-15T16:24:51;98648.28;;;11.59;76.03
50282;BME280;36176;51.506;10.272;2022-11-15T16:27:47;98644.69;;;11.60;75.88
50282;BME280;36176;51.506;10.272;2022-11-15T16:30:29;98644.69;;;11.60;75.91
50282;BME280;36176;51.506;10.272;2022-11-15T16:33:26;98639.47;;;11.58;75.84
50282;BME280;36176;51.506;10.272;2022-11-15T16:36:41;98640.34;;;11.59;76.15
50282;BME280;36176;51.506;10.272;2022-11-15T16:39:44;98634.38;;;11.55;75.94
50282;BME280;36176;51.506;10.272;2022-11-15T16:42:44;98629.94;;;11.56;75.89
50282;BME280;36176;51.506;10.272;2022-11-15T16:45:20;98628.13;;;11.56;76.34
50282;BME280;36176;51.506;10.272;2022-11-15T16:48:34;98625.75;;;11.52;76.45
50282;BME280;36176;51.506;10.272;2022-11-15T16:51:21;98632.03;;;11.50;76.38
50282;BME280;36176;51.506;10.272;2022-11-15T16:58:08;98633.16;;;11.46;76.43
50282;BME280;36176;51.506;10.272;2022-11-15T17:00:52;98631.47;;;11.45;76.05
50282;BME280;36176;51.506;10.272;2022-11-15T17:03:45;98633.16;;;11.46;75.91
50282;BME280;36176;51.506;10.272;2022-11-15T17:06:16;98628.72;;;11.47;75.59
50282;BME280;36176;51.506;10.272;2022-11-15T17:08:51;98626.09;;;11.47;75.66
50282;BME280;36176;51.506;10.272;2022-11-15T17:11:25;98621.91;;;11.43;76.46